sensor_id;sensor_type;location;lat;lon;timestamp;pressure;altitude;pressure_sealevel;temperature;humidity
70971;BME280;58632;51.718;19.446;2023-04-07T00:01:51;99569.77;;;1.87;100.00
70971;BME280;58632;51.718;19.446;2023-04-07T00:04:17;99568.36;;;1.87;100.00
70971;BME280;58632;51.718;19.446;2023-04-07T00:06:42;99567.92;;;1.88;100.00
70971;BME280;58632;51.718;19.446;2023-04-07T00:09:08;99567.16;;;1.89;100.00
70971;BME280;58632;51.718;19.446;2023-04-07T00:11:35;99566.25;;;1.91;100.00
70971;BME280;58632;51.718;19.446;2023-04-07T00:14:00;99565.11;;;1.91;100.00
70971;BME280;58632;51.718;19.446;2023-04-07T00:16:26;99560.85;;;1.91;100.00
70971;BME280;58632;51.718;19.446;2023-04-07T00:18:51;99559.92;;;1.90;100.00
70971;BME280;58632;51.718;19.446;2023-04-07T00:21:17;99562.35;;;1.90;100.00
70971;BME280;58632;51.718;19.446;2023-04-07T00:23:43;99561.23;;;1.90;100.00
70971;BME280;58632;51.718;19.446;2023-04-07T00:26:09;99561.33;;;1.93;100.00
70971;BME280;58632;51.718;19.446;2023-04-07T00:28:34;99559.70;;;1.94;100.00
70971;BME280;58632;51.718;19.446;2023-04-07T00:31:00;99558.15;;;1.99;100.00
70971;BME280;58632;51.718;19.446;2023-04-07T00:33:25;99558.30;;;1.96;100.00
70971;BME280;58632;51.718;19.446;2023-04-07T00:35:51;99555.23;;;1.91;100.00
70971;BME280;58632;51.718;19.446;2023-04-07T00:38:18;99557.72;;;1.87;100.00
70971;BME280;58632;51.718;19.446;2023-04-07T00:40:44;99555.70;;;1.84;100.00
70971;BME280;58632;51.718;19.446;2023-04-07T00:43:10;99553.65;;;1.83;100.00
70971;BME280;58632;51.718;19.446;2023-04-07T00:45:36;99551.55;;;1.85;100.00
70971;BME280;58632;51.718;19.446;2023-04-07T00:48:02;99547.55;;;1.87;100.00
70971;BME280;58632;51.718;19.446;2023-04-07T00:50:28;99546.75;;;1.88;100.00
70971;BME280;58632;51.718;19.446;2023-04-07T00:52:53;99540.53;;;1.90;100.00
70971;BME280;58632;51.718;19.446;2023-04-07T00:55:21;99539.56;;;1.92;100.00
70971;BME280;58632;51.718;19.446;2023-04-07T00:57:46;99535.41;;;1.89;100.00
70971;BME280;58632;51.718;19.446;2023-04-07T01:00:12;99532.83;;;1.86;100.00
70971;BME280;58632;51.718;19.446;2023-04-07T01:02:52;99532.06;;;1.83;100.00
70971;BME280;58632;51.718;19.446;2023-04-07T01:05:21;99527.27;;;1.87;100.00
70971;BME280;58632;51.718;19.446;2023-04-07T01:07:51;99527.80;;;1.88;100.00
70971;BME280;58632;51.718;19.446;2023-04-07T01:10:24;99526.34;;;1.89;100.00
70971;BME280;58632;51.718;19.446;2023-04-07T01:15:35;99526.13;;;1.87;100.00
70971;BME280;58632;51.718;19.446;2023-04-07T01:18:08;99527.31;;;1.85;100.00
70971;BME280;58632;51.718;19.446;2023-04-07T01:20:35;99527.73;;;1.82;100.00
70971;BME280;58632;51.718;19.446;2023-04-07T01:23:03;99526.88;;;1.82;100.00
70971;BME280;58632;51.718;19.446;2023-04-07T01:28:00;99524.55;;;1.82;100.00
70971;BME280;58632;51.718;19.446;2023-04-07T01:30:34;99522.78;;;1.83;100.00
70971;BME280;58632;51.718;19.446;2023-04-07T01:33:00;99525.30;;;1.84;100.00
70971;BME280;58632;51.718;19.446;2023-04-07T01:35:28;99523.75;;;1.84;100.00
70971;BME280;58632;51.718;19.446;2023-04-07T01:37:55;99517.96;;;1.83;100.00
70971;BME280;58632;51.718;19.446;2023-04-07T01:40:22;99519.59;;;1.82;100.00
70971;BME280;58632;51.718;19.446;2023-04-07T01:42:48;99519.70;;;1.83;100.00
70971;BME280;58632;51.718;19.446;2023-04-07T01:45:15;99522.08;;;1.84;100.00
70971;BME280;58632;51.718;19.446;2023-04-07T01:47:41;99517.37;;;1.85;100.00
70971;BME280;58632;51.718;19.446;2023-04-07T01:50:07;99511.17;;;1.87;100.00
70971;BME280;58632;51.718;19.446;2023-04-07T01:52:34;99510.07;;;1.88;100.00
70971;BME280;58632;51.718;19.446;2023-04-07T01:55:01;99509.27;;;1.91;100.00
70971;BME280;58632;51.718;19.446;2023-04-07T01:57:27;99505.05;;;1.92;100.00
70971;BME280;58632;51.718;19.446;2023-04-07T01:59:52;99504.57;;;1.91;100.00
70971;BME280;58632;51.718;19.446;2023-04-07T02:02:18;99499.21;;;1.88;100.00
70971;BME280;58632;51.718;19.446;2023-04-07T02:05:05;99499.06;;;1.88;100.00
70971;BME280;58632;51.718;19.446;2023-04-07T02:07:31;99494.46;;;1.92;100.00
70971;BME280;58632;51.718;19.446;2023-04-07T02:09:59;99498.79;;;1.93;100.00
70971;BME280;58632;51.718;19.446;2023-04-07T02:12:27;99497.11;;;1.94;100.00
70971;BME280;58632;51.718;19.446;2023-04-07T02:14:54;99498.46;;;1.97;100.00
70971;BME280;58632;51.718;19.446;2023-04-07T02:17:23;99497.44;;;1.98;100.00
70971;BME280;58632;51.718;19.446;2023-04-07T02:19:50;99497.16;;;1.99;100.00
70971;BME280;58632;51.718;19.446;2023-04-07T02:22:17;99497.81;;;1.98;100.00
70971;BME280;58632;51.718;19.446;2023-04-07T02:24:42;99494.04;;;1.95;100.00
70971;BME280;58632;51.718;19.446;2023-04-07T02:27:08;99493.17;;;1.96;100.00
70971;BME280;58632;51.718;19.446;2023-04-07T02:29:34;99497.54;;;1.97;100.00
70971;BME280;58632;51.718;19.446;2023-04-07T02:31:59;99496.46;;;1.97;100.00
70971;BME280;58632;51.718;19.446;2023-04-07T02:34:25;99494.79;;;1.98;100.00
70971;BME280;58632;51.718;19.446;2023-04-07T02:36:51;99493.75;;;2.01;100.00
70971;BME280;58632;51.718;19.446;2023-04-07T02:39:16;99495.65;;;2.02;100.00
70971;BME280;58632;51.718;19.446;2023-04-07T02:41:42;99490.73;;;2.04;100.00
70971;BME280;58632;51.718;19.446;2023-04-07T02:44:07;99492.18;;;2.04;100.00
70971;BME280;58632;51.718;19.446;2023-04-07T02:46:33;99494.19;;;2.05;100.00
70971;BME280;58632;51.718;19.446;2023-04-07T02:48:59;99498.55;;;2.08;100.00
70971;BME280;58632;51.718;19.446;2023-04-07T02:51:24;99495.58;;;2.11;100.00
70971;BME280;58632;51.718;19.446;2023-04-07T02:53:51;99495.46;;;2.11;100.00
70971;BME280;58632;51.718;19.446;2023-04-07T02:56:17;99489.46;;;2.17;100.00
70971;BME280;58632;51.718;19.446;2023-04-07T02:58:42;99490.31;;;2.21;100.00
70971;BME280;58632;51.718;19.446;2023-04-07T03:01:08;99489.13;;;2.23;100.00
70971;BME280;58632;51.718;19.446;2023-04-07T03:03:33;99489.18;;;2.24;100.00
70971;BME280;58632;51.718;19.446;2023-04-07T03:05:59;99490.86;;;2.25;100.00
70971;BME280;58632;51.718;19.446;2023-04-07T03:08:25;99489.16;;;2.24;100.00
70971;BME280;58632;51.718;19.446;2023-04-07T03:10:51;99492.58;;;2.27;100.00
70971;BME280;58632;51.718;19.446;2023-04-07T03:13:16;99493.80;;;2.31;100.00
70971;BME280;58632;51.718;19.446;2023-04-07T03:15:43;99496.77;;;2.31;100.00
70971;BME280;58632;51.718;19.446;2023-04-07T03:18:09;99492.77;;;2.30;100.00
70971;BME280;58632;51.718;19.446;2023-04-07T03:20:36;99494.06;;;2.33;100.00
70971;BME280;58632;51.718;19.446;2023-04-07T03:23:02;99492.50;;;2.36;100.00
70971;BME280;58632;51.718;19.446;2023-04-07T03:25:27;99489.53;;;2.33;100.00
70971;BME280;58632;51.718;19.446;2023-04-07T03:27:53;99486.23;;;2.28;100.00
70971;BME280;58632;51.718;19.446;2023-04-07T03:30:18;99485.27;;;2.24;100.00
70971;BME280;58632;51.718;19.446;2023-04-07T03:32:44;99482.52;;;2.24;100.00
70971;BME280;58632;51.718;19.446;2023-04-07T03:35:10;99482.90;;;2.24;100.00
70971;BME280;58632;51.718;19.446;2023-04-07T03:37:35;99485.18;;;2.24;100.00
70971;BME280;58632;51.718;19.446;2023-04-07T03:40:01;99486.08;;;2.29;100.00
70971;BME280;58632;51.718;19.446;2023-04-07T03:42:26;99486.61;;;2.32;100.00
70971;BME280;58632;51.718;19.446;2023-04-07T03:44:52;99484.33;;;2.35;100.00
70971;BME280;58632;51.718;19.446;2023-04-07T03:47:17;99481.20;;;2.34;100.00
70971;BME280;58632;51.718;19.446;2023-04-07T03:49:43;99479.96;;;2.33;100.00
70971;BME280;58632;51.718;19.446;2023-04-07T03:52:09;99478.65;;;2.35;100.00
70971;BME280;58632;51.718;19.446;2023-04-07T03:54:35;99480.43;;;2.39;100.00
70971;BME280;58632;51.718;19.446;2023-04-07T03:57:00;99477.61;;;2.41;100.00
70971;BME280;58632;51.718;19.446;2023-04-07T03:59:27;99476.09;;;2.43;100.00
70971;BME280;58632;51.718;19.446;2023-04-07T04:01:52;99473.84;;;2.41;100.00
70971;BME280;58632;51.718;19.446;2023-04-07T04:04:18;99475.67;;;2.40;100.00
70971;BME280;58632;51.718;19.446;2023-04-07T04:06:43;99474.02;;;2.35;100.00
70971;BME280;58632;51.718;19.446;2023-04-07T04:09:09;99467.41;;;2.36;100.00
70971;BME280;58632;51.718;19.446;2023-04-07T04:11:35;99469.95;;;2.39;100.00
70971;BME280;58632;51.718;19.446;2023-04-07T04:14:00;99469.23;;;2.42;100.00
70971;BME280;58632;51.718;19.446;2023-04-07T04:16:26;99470.52;;;2.46;100.00
70971;BME280;58632;51.718;19.446;2023-04-07T04:18:51;99471.68;;;2.51;100.00
70971;BME280;58632;51.718;19.446;2023-04-07T04:21:17;99473.52;;;2.54;100.00
70971;BME280;58632;51.718;19.446;2023-04-07T04:23:43;99471.67;;;2.55;100.00
70971;BME280;58632;51.718;19.446;2023-04-07T04:26:09;99475.41;;;2.53;100.00
70971;BME280;58632;51.718;19.446;2023-04-07T04:28:34;99472.77;;;2.51;100.00
70971;BME280;58632;51.718;19.446;2023-04-07T04:31:00;99474.02;;;2.49;100.00
70971;BME280;58632;51.718;19.446;2023-04-07T04:33:26;99476.77;;;2.48;100.00
70971;BME280;58632;51.718;19.446;2023-04-07T04:35:51;99476.06;;;2.51;100.00
70971;BME280;58632;51.718;19.446;2023-04-07T04:38:20;99479.90;;;2.53;100.00
70971;BME280;58632;51.718;19.446;2023-04-07T04:40:45;99475.98;;;2.55;100.00
70971;BME280;58632;51.718;19.446;2023-04-07T04:43:14;99478.70;;;2.57;100.00
70971;BME280;58632;51.718;19.446;2023-04-07T04:45:40;99478.09;;;2.62;100.00
70971;BME280;58632;51.718;19.446;2023-04-07T04:48:05;99478.61;;;2.62;100.00
70971;BME280;58632;51.718;19.446;2023-04-07T04:50:31;99477.06;;;2.60;100.00
70971;BME280;58632;51.718;19.446;2023-04-07T04:52:57;99475.33;;;2.61;100.00
70971;BME280;58632;51.718;19.446;2023-04-07T04:55:25;99477.10;;;2.62;100.00
70971;BME280;58632;51.718;19.446;2023-04-07T04:57:51;99477.00;;;2.65;100.00
70971;BME280;58632;51.718;19.446;2023-04-07T05:00:17;99482.26;;;2.69;100.00
70971;BME280;58632;51.718;19.446;2023-04-07T05:02:42;99481.15;;;2.76;100.00
70971;BME280;58632;51.718;19.446;2023-04-07T05:05:08;99484.15;;;2.82;100.00
70971;BME280;58632;51.718;19.446;2023-04-07T05:07:33;99483.86;;;2.86;100.00
70971;BME280;58632;51.718;19.446;2023-04-07T05:09:59;99486.46;;;2.85;100.00
70971;BME280;58632;51.718;19.446;2023-04-07T05:12:25;99486.08;;;2.86;100.00
70971;BME280;58632;51.718;19.446;2023-04-07T05:14:51;99484.11;;;2.90;100.00
70971;BME280;58632;51.718;19.446;2023-04-07T05:17:17;99490.13;;;2.98;100.00
70971;BME280;58632;51.718;19.446;2023-04-07T05:19:42;99489.42;;;3.01;100.00
70971;BME280;58632;51.718;19.446;2023-04-07T05:22:08;99488.54;;;3.02;100.00
70971;BME280;58632;51.718;19.446;2023-04-07T05:24:34;99490.38;;;3.04;100.00
70971;BME280;58632;51.718;19.446;2023-04-07T05:26:59;99496.69;;;3.08;100.00
70971;BME280;58632;51.718;19.446;2023-04-07T05:29:26;99493.20;;;3.11;100.00
70971;BME280;58632;51.718;19.446;2023-04-07T05:31:51;99494.88;;;3.10;100.00
70971;BME280;58632;51.718;19.446;2023-04-07T05:34:17;99494.45;;;3.09;100.00
70971;BME280;58632;51.718;19.446;2023-04-07T05:36:42;99497.21;;;3.10;100.00
70971;BME280;58632;51.718;19.446;2023-04-07T05:39:08;99497.48;;;3.10;100.00
70971;BME280;58632;51.718;19.446;2023-04-07T05:41:34;99493.24;;;3.13;100.00
70971;BME280;58632;51.718;19.446;2023-04-07T05:43:59;99493.66;;;3.15;100.00
70971;BME280;58632;51.718;19.446;2023-04-07T05:46:25;99493.20;;;3.17;100.00
70971;BME280;58632;51.718;19.446;2023-04-07T05:48:50;99494.42;;;3.23;100.00
70971;BME280;58632;51.718;19.446;2023-04-07T05:51:16;99492.06;;;3.28;100.00
70971;BME280;58632;51.718;19.446;2023-04-07T05:53:42;99489.88;;;3.31;100.00
70971;BME280;58632;51.718;19.446;2023-04-07T05:56:08;99486.23;;;3.34;100.00
70971;BME280;58632;51.718;19.446;2023-04-07T05:58:33;99484.69;;;3.38;100.00
70971;BME280;58632;51.718;19.446;2023-04-07T06:00:59;99478.88;;;3.42;100.00
70971;BME280;58632;51.718;19.446;2023-04-07T06:03:24;99480.02;;;3.46;100.00
70971;BME280;58632;51.718;19.446;2023-04-07T06:05:50;99485.06;;;3.53;100.00
70971;BME280;58632;51.718;19.446;2023-04-07T06:08:16;99483.27;;;3.62;100.00
70971;BME280;58632;51.718;19.446;2023-04-07T06:10:42;99482.75;;;3.72;100.00
70971;BME280;58632;51.718;19.446;2023-04-07T06:13:08;99482.70;;;3.84;100.00
70971;BME280;58632;51.718;19.446;2023-04-07T06:15:33;99488.69;;;3.92;100.00
70971;BME280;58632;51.718;19.446;2023-04-07T06:17:59;99489.61;;;3.98;100.00
70971;BME280;58632;51.718;19.446;2023-04-07T06:20:25;99488.63;;;3.99;100.00
70971;BME280;58632;51.718;19.446;2023-04-07T06:22:52;99491.78;;;3.98;100.00
70971;BME280;58632;51.718;19.446;2023-04-07T06:25:17;99491.24;;;3.97;100.00
70971;BME280;58632;51.718;19.446;2023-04-07T06:27:43;99489.02;;;3.99;100.00
70971;BME280;58632;51.718;19.446;2023-04-07T06:30:08;99489.24;;;4.03;100.00
70971;BME280;58632;51.718;19.446;2023-04-07T06:32:34;99484.51;;;4.05;100.00
70971;BME280;58632;51.718;19.446;2023-04-07T06:35:00;99481.77;;;4.09;100.00
70971;BME280;58632;51.718;19.446;2023-04-07T06:37:26;99483.86;;;4.15;100.00
70971;BME280;58632;51.718;19.446;2023-04-07T06:39:51;99480.41;;;4.20;100.00
70971;BME280;58632;51.718;19.446;2023-04-07T06:42:17;99481.33;;;4.20;100.00
70971;BME280;58632;51.718;19.446;2023-04-07T06:44:42;99478.92;;;4.21;100.00
70971;BME280;58632;51.718;19.446;2023-04-07T06:47:08;99481.27;;;4.24;100.00
70971;BME280;58632;51.718;19.446;2023-04-07T06:49:34;99479.27;;;4.29;100.00
70971;BME280;58632;51.718;19.446;2023-04-07T06:51:59;99475.75;;;4.35;100.00
70971;BME280;58632;51.718;19.446;2023-04-07T06:54:25;99481.05;;;4.40;100.00
70971;BME280;58632;51.718;19.446;2023-04-07T06:56:50;99477.92;;;4.44;100.00
70971;BME280;58632;51.718;19.446;2023-04-07T06:59:16;99476.98;;;4.49;100.00
70971;BME280;58632;51.718;19.446;2023-04-07T07:01:42;99476.13;;;4.57;100.00
70971;BME280;58632;51.718;19.446;2023-04-07T07:04:08;99482.67;;;4.69;100.00
70971;BME280;58632;51.718;19.446;2023-04-07T07:06:33;99480.16;;;4.75;100.00
70971;BME280;58632;51.718;19.446;2023-04-07T07:08:59;99479.61;;;4.83;100.00
70971;BME280;58632;51.718;19.446;2023-04-07T07:11:25;99486.52;;;4.91;100.00
70971;BME280;58632;51.718;19.446;2023-04-07T07:13:51;99485.66;;;4.93;100.00
70971;BME280;58632;51.718;19.446;2023-04-07T07:16:16;99485.70;;;4.87;100.00
70971;BME280;58632;51.718;19.446;2023-04-07T07:18:42;99486.84;;;4.86;100.00
70971;BME280;58632;51.718;19.446;2023-04-07T07:21:08;99490.56;;;4.89;100.00
70971;BME280;58632;51.718;19.446;2023-04-07T07:23:33;99488.59;;;4.95;100.00
70971;BME280;58632;51.718;19.446;2023-04-07T07:25:59;99491.71;;;4.99;100.00
70971;BME280;58632;51.718;19.446;2023-04-07T07:28:25;99489.08;;;5.07;100.00
70971;BME280;58632;51.718;19.446;2023-04-07T07:30:50;99490.16;;;5.14;100.00
70971;BME280;58632;51.718;19.446;2023-04-07T07:33:16;99488.25;;;5.19;100.00
70971;BME280;58632;51.718;19.446;2023-04-07T07:35:42;99489.06;;;5.20;100.00
70971;BME280;58632;51.718;19.446;2023-04-07T07:38:07;99494.81;;;5.19;100.00
70971;BME280;58632;51.718;19.446;2023-04-07T07:40:33;99496.59;;;5.20;100.00
70971;BME280;58632;51.718;19.446;2023-04-07T07:42:59;99492.27;;;5.27;100.00
70971;BME280;58632;51.718;19.446;2023-04-07T07:45:24;99493.99;;;5.35;100.00
70971;BME280;58632;51.718;19.446;2023-04-07T07:47:50;99494.50;;;5.47;100.00
70971;BME280;58632;51.718;19.446;2023-04-07T07:50:15;99493.88;;;5.58;100.00
70971;BME280;58632;51.718;19.446;2023-04-07T07:52:41;99494.77;;;5.66;100.00
70971;BME280;58632;51.718;19.446;2023-04-07T07:55:07;99495.23;;;5.77;100.00
70971;BME280;58632;51.718;19.446;2023-04-07T07:57:33;99494.33;;;5.90;100.00
70971;BME280;58632;51.718;19.446;2023-04-07T07:59:58;99497.50;;;6.00;100.00
70971;BME280;58632;51.718;19.446;2023-04-07T08:02:24;99497.70;;;6.12;100.00
70971;BME280;58632;51.718;19.446;2023-04-07T08:04:55;99496.71;;;6.26;100.00
70971;BME280;58632;51.718;19.446;2023-04-07T08:07:21;99491.44;;;6.34;100.00
70971;BME280;58632;51.718;19.446;2023-04-07T08:09:47;99496.01;;;6.37;100.00
70971;BME280;58632;51.718;19.446;2023-04-07T08:12:12;99494.54;;;6.37;100.00
70971;BME280;58632;51.718;19.446;2023-04-07T08:14:38;99494.20;;;6.35;100.00
70971;BME280;58632;51.718;19.446;2023-04-07T08:17:03;99493.90;;;6.33;100.00
70971;BME280;58632;51.718;19.446;2023-04-07T08:19:28;99486.96;;;6.38;100.00
70971;BME280;58632;51.718;19.446;2023-04-07T08:21:54;99495.31;;;6.48;100.00
70971;BME280;58632;51.718;19.446;2023-04-07T08:24:20;99493.47;;;6.53;100.00
70971;BME280;58632;51.718;19.446;2023-04-07T08:26:45;99490.21;;;6.58;100.00
70971;BME280;58632;51.718;19.446;2023-04-07T08:29:11;99488.39;;;6.60;100.00
70971;BME280;58632;51.718;19.446;2023-04-07T08:31:36;99490.34;;;6.57;100.00
70971;BME280;58632;51.718;19.446;2023-04-07T08:34:02;99491.97;;;6.59;100.00
70971;BME280;58632;51.718;19.446;2023-04-07T08:36:28;99487.64;;;6.56;100.00
70971;BME280;58632;51.718;19.446;2023-04-07T08:38:54;99493.93;;;6.55;100.00
70971;BME280;58632;51.718;19.446;2023-04-07T08:41:22;99490.67;;;6.55;100.00
70971;BME280;58632;51.718;19.446;2023-04-07T08:43:48;99484.58;;;6.57;100.00
70971;BME280;58632;51.718;19.446;2023-04-07T08:46:14;99483.28;;;6.58;100.00
70971;BME280;58632;51.718;19.446;2023-04-07T08:48:41;99486.15;;;6.57;100.00
70971;BME280;58632;51.718;19.446;2023-04-07T08:51:08;99482.89;;;6.63;100.00
70971;BME280;58632;51.718;19.446;2023-04-07T08:53:42;99481.94;;;6.75;100.00
70971;BME280;58632;51.718;19.446;2023-04-07T08:56:08;99486.63;;;6.85;100.00
70971;BME280;58632;51.718;19.446;2023-04-07T08:58:35;99486.63;;;6.85;100.00
70971;BME280;58632;51.718;19.446;2023-04-07T09:01:03;99484.13;;;6.87;100.00
70971;BME280;58632;51.718;19.446;2023-04-07T09:03:28;99483.40;;;6.94;100.00
70971;BME280;58632;51.718;19.446;2023-04-07T09:05:57;99479.69;;;6.94;100.00
70971;BME280;58632;51.718;19.446;2023-04-07T09:08:22;99480.77;;;6.88;100.00
70971;BME280;58632;51.718;19.446;2023-04-07T09:10:48;99482.28;;;6.87;100.00
70971;BME280;58632;51.718;19.446;2023-04-07T09:13:14;99481.80;;;6.85;100.00
70971;BME280;58632;51.718;19.446;2023-04-07T09:15:39;99481.38;;;6.78;100.00
70971;BME280;58632;51.718;19.446;2023-04-07T09:18:05;99480.98;;;6.68;100.00
70971;BME280;58632;51.718;19.446;2023-04-07T09:23:36;99479.14;;;6.55;100.00
70971;BME280;58632;51.718;19.446;2023-04-07T09:26:23;99472.71;;;6.55;100.00
70971;BME280;58632;51.718;19.446;2023-04-07T09:28:48;99467.61;;;6.57;100.00
70971;BME280;58632;51.718;19.446;2023-04-07T09:31:14;99469.95;;;6.54;100.00
70971;BME280;58632;51.718;19.446;2023-04-07T09:33:41;99468.38;;;6.54;100.00
70971;BME280;58632;51.718;19.446;2023-04-07T09:36:06;99469.96;;;6.56;100.00
70971;BME280;58632;51.718;19.446;2023-04-07T09:38:32;99468.02;;;6.58;100.00
70971;BME280;58632;51.718;19.446;2023-04-07T09:41:08;99463.86;;;6.59;100.00
70971;BME280;58632;51.718;19.446;2023-04-07T09:43:37;99465.35;;;6.58;100.00
70971;BME280;58632;51.718;19.446;2023-04-07T09:48:35;99464.07;;;6.63;100.00
70971;BME280;58632;51.718;19.446;2023-04-07T09:51:04;99472.34;;;6.68;100.00
70971;BME280;58632;51.718;19.446;2023-04-07T09:53:48;99467.69;;;6.69;100.00
70971;BME280;58632;51.718;19.446;2023-04-07T09:56:16;99478.27;;;6.72;100.00
70971;BME280;58632;51.718;19.446;2023-04-07T09:58:42;99474.27;;;6.72;100.00
70971;BME280;58632;51.718;19.446;2023-04-07T10:01:08;99468.29;;;6.69;100.00
70971;BME280;58632;51.718;19.446;2023-04-07T10:03:34;99465.95;;;6.66;100.00
70971;BME280;58632;51.718;19.446;2023-04-07T10:06:00;99465.27;;;6.65;100.00
70971;BME280;58632;51.718;19.446;2023-04-07T10:08:30;99465.34;;;6.66;100.00
70971;BME280;58632;51.718;19.446;2023-04-07T10:10:56;99469.27;;;6.71;100.00
70971;BME280;58632;51.718;19.446;2023-04-07T10:13:23;99475.62;;;6.75;100.00
70971;BME280;58632;51.718;19.446;2023-04-07T10:15:48;99477.30;;;6.78;100.00
70971;BME280;58632;51.718;19.446;2023-04-07T10:18:14;99461.95;;;6.83;100.00
70971;BME280;58632;51.718;19.446;2023-04-07T10:20:42;99458.88;;;6.92;100.00
70971;BME280;58632;51.718;19.446;2023-04-07T10:23:12;99460.13;;;6.95;100.00
70971;BME280;58632;51.718;19.446;2023-04-07T10:25:41;99459.10;;;6.94;100.00
70971;BME280;58632;51.718;19.446;2023-04-07T10:28:08;99465.20;;;6.92;100.00
70971;BME280;58632;51.718;19.446;2023-04-07T10:30:34;99462.64;;;6.87;100.00
70971;BME280;58632;51.718;19.446;2023-04-07T10:33:00;99473.05;;;6.86;100.00
70971;BME280;58632;51.718;19.446;2023-04-07T10:35:26;99470.17;;;6.88;100.00
70971;BME280;58632;51.718;19.446;2023-04-07T10:38:12;99465.49;;;6.93;100.00
70971;BME280;58632;51.718;19.446;2023-04-07T10:40:38;99461.92;;;7.02;100.00
70971;BME280;58632;51.718;19.446;2023-04-07T10:43:05;99463.43;;;7.05;100.00
70971;BME280;58632;51.718;19.446;2023-04-07T10:48:13;99464.02;;;7.01;100.00
70971;BME280;58632;51.718;19.446;2023-04-07T10:50:39;99470.61;;;6.98;100.00
70971;BME280;58632;51.718;19.446;2023-04-07T10:53:08;99471.36;;;6.92;100.00
70971;BME280;58632;51.718;19.446;2023-04-07T10:55:40;99472.18;;;6.89;100.00
70971;BME280;58632;51.718;19.446;2023-04-07T10:58:16;99469.91;;;6.87;100.00
70971;BME280;58632;51.718;19.446;2023-04-07T11:03:35;99474.45;;;6.90;100.00
70971;BME280;58632;51.718;19.446;2023-04-07T11:06:05;99477.14;;;6.93;100.00
70971;BME280;58632;51.718;19.446;2023-04-07T11:08:38;99473.84;;;6.95;100.00
70971;BME280;58632;51.718;19.446;2023-04-07T11:11:04;99475.27;;;6.97;100.00
70971;BME280;58632;51.718;19.446;2023-04-07T11:16:04;99472.59;;;6.98;100.00
70971;BME280;58632;51.718;19.446;2023-04-07T11:18:30;99470.88;;;7.04;100.00
70971;BME280;58632;51.718;19.446;2023-04-07T11:20:56;99471.45;;;7.10;100.00
70971;BME280;58632;51.718;19.446;2023-04-07T11:23:24;99470.48;;;7.14;100.00
70971;BME280;58632;51.718;19.446;2023-04-07T11:26:01;99465.72;;;7.20;100.00
70971;BME280;58632;51.718;19.446;2023-04-07T11:28:27;99469.06;;;7.31;100.00
70971;BME280;58632;51.718;19.446;2023-04-07T11:30:53;99471.48;;;7.35;100.00
70971;BME280;58632;51.718;19.446;2023-04-07T11:33:31;99470.09;;;7.38;100.00
70971;BME280;58632;51.718;19.446;2023-04-07T11:35:59;99469.38;;;7.41;100.00
70971;BME280;58632;51.718;19.446;2023-04-07T11:38:26;99472.27;;;7.47;100.00
70971;BME280;58632;51.718;19.446;2023-04-07T11:40:53;99472.02;;;7.58;100.00
70971;BME280;58632;51.718;19.446;2023-04-07T11:43:23;99474.69;;;7.70;100.00
70971;BME280;58632;51.718;19.446;2023-04-07T11:46:10;99475.77;;;7.79;100.00
70971;BME280;58632;51.718;19.446;2023-04-07T11:48:37;99473.88;;;7.84;100.00
70971;BME280;58632;51.718;19.446;2023-04-07T11:51:03;99471.84;;;7.85;100.00
70971;BME280;58632;51.718;19.446;2023-04-07T11:55:58;99471.89;;;7.88;100.00
70971;BME280;58632;51.718;19.446;2023-04-07T11:58:24;99472.61;;;7.92;100.00
70971;BME280;58632;51.718;19.446;2023-04-07T12:00:56;99469.58;;;7.93;100.00
70971;BME280;58632;51.718;19.446;2023-04-07T12:03:22;99472.50;;;7.92;100.00
70971;BME280;58632;51.718;19.446;2023-04-07T12:05:48;99469.27;;;7.92;100.00
70971;BME280;58632;51.718;19.446;2023-04-07T12:08:14;99469.40;;;7.96;100.00
70971;BME280;58632;51.718;19.446;2023-04-07T12:10:41;99471.00;;;8.01;100.00
70971;BME280;58632;51.718;19.446;2023-04-07T12:13:07;99472.05;;;7.96;100.00
70971;BME280;58632;51.718;19.446;2023-04-07T12:15:33;99466.55;;;7.87;100.00
70971;BME280;58632;51.718;19.446;2023-04-07T12:17:59;99469.17;;;7.85;100.00
70971;BME280;58632;51.718;19.446;2023-04-07T12:20:25;99473.11;;;7.88;100.00
70971;BME280;58632;51.718;19.446;2023-04-07T12:22:51;99471.03;;;7.91;100.00
70971;BME280;58632;51.718;19.446;2023-04-07T12:25:17;99473.33;;;7.98;100.00
70971;BME280;58632;51.718;19.446;2023-04-07T12:27:42;99474.50;;;8.06;100.00
70971;BME280;58632;51.718;19.446;2023-04-07T12:30:08;99474.94;;;8.13;100.00
70971;BME280;58632;51.718;19.446;2023-04-07T12:32:33;99475.40;;;8.13;100.00
70971;BME280;58632;51.718;19.446;2023-04-07T12:34:59;99475.95;;;8.07;100.00
70971;BME280;58632;51.718;19.446;2023-04-07T12:37:25;99478.43;;;8.03;100.00
70971;BME280;58632;51.718;19.446;2023-04-07T12:39:51;99475.95;;;8.04;100.00
70971;BME280;58632;51.718;19.446;2023-04-07T12:42:17;99476.52;;;8.05;100.00
70971;BME280;58632;51.718;19.446;2023-04-07T12:44:42;99480.15;;;8.09;100.00
70971;BME280;58632;51.718;19.446;2023-04-07T12:47:08;99479.46;;;8.12;100.00
70971;BME280;58632;51.718;19.446;2023-04-07T12:49:36;99480.39;;;8.12;100.00
70971;BME280;58632;51.718;19.446;2023-04-07T12:52:01;99476.33;;;8.10;100.00
70971;BME280;58632;51.718;19.446;2023-04-07T12:54:27;99475.36;;;8.10;100.00
70971;BME280;58632;51.718;19.446;2023-04-07T12:56:54;99476.69;;;8.15;100.00
70971;BME280;58632;51.718;19.446;2023-04-07T12:59:21;99478.83;;;8.19;100.00
70971;BME280;58632;51.718;19.446;2023-04-07T13:01:48;99477.65;;;8.20;100.00
70971;BME280;58632;51.718;19.446;2023-04-07T13:04:14;99477.90;;;8.24;100.00
70971;BME280;58632;51.718;19.446;2023-04-07T13:06:39;99477.00;;;8.26;100.00
70971;BME280;58632;51.718;19.446;2023-04-07T13:09:05;99474.95;;;8.29;100.00